EWG12 EDAH-ZZZZ
Flight info
| Callsign | EWG12 |
|---|---|
| Flight time | N/A |
| Altitude | |
| Route | |
| Aircraft | A320 |
Departure
| Time | 2026-04-11 20:28 |
|---|---|
| Airport | Heringsdorf Airport (EDAH) |
Arrival
| Time | N/A |
|---|---|
| Airport | ZZZZ |
| Time | Latitude | Longitude | Altitude | Speed | Heading |
|---|---|---|---|---|---|
| 2026-04-11 20:25 | 53.88158 | 14.13496 | 81 ft | 0 kts | 105° |
| 2026-04-11 20:28 | 53.88130 | 14.13668 | 82 ft | 61 kts | 105° |
| 2026-04-11 20:28 | 53.87913 | 14.14981 | 183 ft | 155 kts | 105° |
| 2026-04-11 20:28 | 53.87608 | 14.16880 | 974 ft | 176 kts | 108° |
| 2026-04-11 20:28 | 53.87385 | 14.18912 | 1350 ft | 182 kts | 91° |
| 2026-04-11 20:29 | 53.87893 | 14.20894 | 1436 ft | 194 kts | 53° |
| 2026-04-11 20:29 | 53.89100 | 14.22011 | 1510 ft | 208 kts | 14° |
| 2026-04-11 20:29 | 53.90529 | 14.21623 | 1518 ft | 214 kts | 332° |
| 2026-04-11 20:29 | 53.91522 | 14.19833 | 1521 ft | 209 kts | 291° |
| 2026-04-11 20:30 | 53.91982 | 14.17503 | 1538 ft | 208 kts | 281° |
| 2026-04-11 20:30 | 53.92330 | 14.15122 | 1536 ft | 207 kts | 278° |
| 2026-04-11 20:30 | 53.92677 | 14.12754 | 1522 ft | 208 kts | 281° |
| 2026-04-11 20:30 | 53.93038 | 14.10392 | 1494 ft | 208 kts | 279° |
| 2026-04-11 20:31 | 53.93363 | 14.07994 | 1435 ft | 206 kts | 271° |
| 2026-04-11 20:31 | 53.93093 | 14.05761 | 1279 ft | 189 kts | 232° |
| 2026-04-11 20:31 | 53.92125 | 14.04439 | 1227 ft | 176 kts | 193° |
| 2026-04-11 20:31 | 53.91009 | 14.04379 | 1150 ft | 145 kts | 160° |
| 2026-04-11 20:32 | 53.90265 | 14.05229 | 1132 ft | 118 kts | 134° |
| 2026-04-11 20:32 | 53.89779 | 14.06315 | 1061 ft | 117 kts | 127° |
| 2026-04-11 20:32 | 53.89379 | 14.07506 | 927 ft | 116 kts | 119° |
| 2026-04-11 20:32 | 53.88989 | 14.08723 | 731 ft | 120 kts | 118° |
| 2026-04-11 20:33 | 53.88727 | 14.10052 | 536 ft | 118 kts | 102° |
| 2026-04-11 20:33 | 53.88512 | 14.11374 | 363 ft | 116 kts | 107° |
| 2026-04-11 20:33 | 53.88288 | 14.12707 | 212 ft | 118 kts | 103° |
| 2026-04-11 20:33 | 53.88071 | 14.14044 | 88 ft | 112 kts | 104° |
| 2026-04-11 20:34 | 53.87885 | 14.15167 | 82 ft | 91 kts | 106° |
| 2026-04-11 20:34 | 53.87684 | 14.16372 | 84 ft | 145 kts | 105° |
| 2026-04-11 20:34 | 53.87433 | 14.18217 | 886 ft | 166 kts | 104° |
| 2026-04-11 20:34 | 53.87294 | 14.20216 | 1393 ft | 178 kts | 88° |
| 2026-04-11 20:35 | 53.87866 | 14.22119 | 1529 ft | 191 kts | 50° |
| 2026-04-11 20:35 | 53.89084 | 14.23147 | 1560 ft | 204 kts | 13° |
| 2026-04-11 20:35 | 53.90487 | 14.22800 | 1571 ft | 209 kts | 334° |
| 2026-04-11 20:35 | 53.91538 | 14.21171 | 1584 ft | 205 kts | 296° |
| 2026-04-11 20:36 | 53.92034 | 14.18933 | 1484 ft | 201 kts | 281° |
| 2026-04-11 20:36 | 53.92398 | 14.16638 | 1431 ft | 202 kts | 280° |
| 2026-04-11 20:36 | 53.92743 | 14.14337 | 1434 ft | 202 kts | 279° |
| 2026-04-11 20:36 | 53.93102 | 14.12033 | 1464 ft | 202 kts | 281° |
| 2026-04-11 20:37 | 53.93465 | 14.09733 | 1455 ft | 202 kts | 280° |
| 2026-04-11 20:37 | 53.93821 | 14.07434 | 1460 ft | 201 kts | 281° |
| 2026-04-11 20:37 | 53.94176 | 14.05151 | 1465 ft | 197 kts | 270° |
| 2026-04-11 20:37 | 53.93895 | 14.03028 | 1365 ft | 182 kts | 229° |
| 2026-04-11 20:38 | 53.92947 | 14.01898 | 1255 ft | 154 kts | 185° |
| 2026-04-11 20:38 | 53.91973 | 14.02094 | 1106 ft | 137 kts | 159° |
| 2026-04-11 20:38 | 53.91152 | 14.02810 | 982 ft | 129 kts | 144° |